createdAt,value
2023-03-13T00:00:11.453Z,42.62
2023-03-13T00:05:16.241Z,42.47
2023-03-13T00:10:19.374Z,42.55
2023-03-13T00:15:22.377Z,42.86
2023-03-13T00:20:26.521Z,42.91
2023-03-13T00:25:29.268Z,43.06
2023-03-13T00:30:32.033Z,42.96
2023-03-13T00:35:36.177Z,43.09
2023-03-13T00:40:39.067Z,43.35
2023-03-13T00:45:41.851Z,43.47
2023-03-13T00:50:46.002Z,43.40
2023-03-13T00:55:53.300Z,43.26
2023-03-13T01:00:56.115Z,43.59
2023-03-13T01:06:01.107Z,43.54
2023-03-13T01:11:05.381Z,43.78
2023-03-13T01:16:10.193Z,43.82
2023-03-13T01:21:14.470Z,43.92
2023-03-13T01:26:17.471Z,44.20
2023-03-13T01:31:21.316Z,44.25
2023-03-13T01:36:25.669Z,44.60
2023-03-13T01:41:29.168Z,44.51
2023-03-13T01:46:32.091Z,44.64
2023-03-13T01:51:51.024Z,44.79
2023-03-13T01:56:55.229Z,45.12
2023-03-13T02:02:00.170Z,44.99
2023-03-13T02:07:06.268Z,45.42
2023-03-13T02:12:11.231Z,45.27
2023-03-13T02:17:14.869Z,45.28
2023-03-13T02:22:23.641Z,45.72
2023-03-13T02:27:28.258Z,45.46
2023-03-13T02:32:31.548Z,45.59
2023-03-13T02:37:34.535Z,45.69
2023-03-13T02:42:40.408Z,45.78
2023-03-13T02:47:43.429Z,45.78
2023-03-13T02:52:47.760Z,46.05
2023-03-13T02:57:52.688Z,46.09
2023-03-13T03:02:56.168Z,46.26
2023-03-13T03:07:59.087Z,46.26
2023-03-13T03:13:04.870Z,46.25
2023-03-13T03:18:07.724Z,46.29
2023-03-13T03:23:10.806Z,46.32
2023-03-13T03:28:15.104Z,46.57
2023-03-13T03:33:19.073Z,46.76
2023-03-13T03:38:21.952Z,46.76
2023-03-13T03:43:27.366Z,46.78
2023-03-13T03:48:31.771Z,46.74
2023-03-13T03:53:34.626Z,46.71
2023-03-13T03:58:39.119Z,46.99
2023-03-13T04:04:02.142Z,46.77
2023-03-13T04:09:05.220Z,46.93
2023-03-13T04:14:10.508Z,46.99
2023-03-13T04:19:13.694Z,47.15
2023-03-13T04:24:17.961Z,47.22
2023-03-13T04:29:22.959Z,47.07
2023-03-13T04:34:32.711Z,46.78
2023-03-13T04:39:44.666Z,46.80
2023-03-13T04:45:10.330Z,46.56
2023-03-13T04:50:25.284Z,46.94
2023-03-13T04:55:43.508Z,46.72
2023-03-13T05:01:13.904Z,47.10
2023-03-13T05:06:28.823Z,46.99
2023-03-13T05:11:58.325Z,47.05
2023-03-13T05:17:21.834Z,46.72
2023-03-13T05:22:43.222Z,46.86
2023-03-13T05:28:03.343Z,46.99
2023-03-13T05:33:16.351Z,46.91
2023-03-13T05:38:31.809Z,46.98
2023-03-13T05:43:48.117Z,46.87
2023-03-13T05:49:08.141Z,47.00
2023-03-13T05:54:40.149Z,46.76
2023-03-13T05:59:45.732Z,46.82
2023-03-13T06:05:15.508Z,47.09
2023-03-13T06:10:19.153Z,46.90
2023-03-13T06:15:22.071Z,46.93
2023-03-13T06:20:57.746Z,47.00
2023-03-13T06:26:01.341Z,47.04
2023-03-13T06:31:04.281Z,47.19
2023-03-13T06:36:09.388Z,47.00
2023-03-13T06:41:12.192Z,46.90
2023-03-13T06:46:17.602Z,46.75
2023-03-13T06:51:22.719Z,46.79
2023-03-13T06:56:25.647Z,46.95
2023-03-13T07:01:28.505Z,47.07
2023-03-13T07:06:32.661Z,46.77
2023-03-13T07:11:35.460Z,46.64
2023-03-13T07:16:38.546Z,46.40
2023-03-13T07:21:42.912Z,46.24
2023-03-13T07:27:01.878Z,46.06
2023-03-13T07:32:08.304Z,46.27
2023-03-13T07:37:12.756Z,45.80
2023-03-13T07:42:15.626Z,45.75
2023-03-13T07:47:18.527Z,45.89
2023-03-13T07:52:23.075Z,45.95
2023-03-13T07:57:25.856Z,46.17
2023-03-13T08:02:28.879Z,45.66
2023-03-13T08:07:33.106Z,45.64
2023-03-13T08:12:35.923Z,45.64
2023-03-13T08:17:38.790Z,45.92
2023-03-13T08:22:42.920Z,45.81
2023-03-13T08:27:45.801Z,46.00
2023-03-13T08:32:48.720Z,46.18
2023-03-13T08:37:53.094Z,45.94
2023-03-13T08:42:55.928Z,46.03
2023-03-13T08:47:58.789Z,46.24
2023-03-13T08:53:03.445Z,46.14
2023-03-13T08:58:06.218Z,46.02
2023-03-13T09:03:09.136Z,46.41
2023-03-13T09:08:13.288Z,43.99
2023-03-13T09:13:16.059Z,43.23
2023-03-13T09:18:18.899Z,43.71
2023-03-13T09:23:23.262Z,43.80
2023-03-13T09:28:26.558Z,44.22
2023-03-13T09:33:29.318Z,44.48
2023-03-13T09:38:33.513Z,44.54
2023-03-13T09:43:41.370Z,45.25
2023-03-13T09:48:44.906Z,45.45
2023-03-13T09:53:50.913Z,45.45
2023-03-13T09:58:55.792Z,46.14
2023-03-13T10:04:06.756Z,45.89
2023-03-13T10:09:21.455Z,46.09
2023-03-13T10:14:30.261Z,46.82
2023-03-13T10:19:34.040Z,46.75
2023-03-13T10:24:40.154Z,46.45
2023-03-13T10:29:43.000Z,46.79
2023-03-13T10:34:47.729Z,46.72
2023-03-13T10:39:52.275Z,47.22
2023-03-13T10:45:00.337Z,47.30
2023-03-13T10:50:03.296Z,47.72
2023-03-13T10:55:08.040Z,49.13
2023-03-13T11:00:28.953Z,49.81
2023-03-13T11:05:43.061Z,50.70
2023-03-13T11:10:57.439Z,50.88
2023-03-13T11:16:01.601Z,50.53
2023-03-13T11:21:17.725Z,50.83
2023-03-13T11:26:24.842Z,50.42
2023-03-13T11:31:30.682Z,49.71
2023-03-13T11:36:35.645Z,48.82
2023-03-13T11:41:49.403Z,48.37
2023-03-13T11:46:58.366Z,48.03
2023-03-13T11:52:06.435Z,47.58
2023-03-13T11:57:13.334Z,47.47
2023-03-13T12:02:19.380Z,47.58
2023-03-13T12:07:24.491Z,47.41
2023-03-13T12:12:34.946Z,47.29
2023-03-13T12:17:38.776Z,46.86
2023-03-13T12:22:43.953Z,46.98
2023-03-13T12:27:48.986Z,46.70
2023-03-13T12:32:55.707Z,46.87
2023-03-13T12:38:01.616Z,46.68
2023-03-13T12:43:10.356Z,46.79
2023-03-13T12:48:39.774Z,46.59
2023-03-13T12:54:08.705Z,46.66
2023-03-13T12:59:15.975Z,46.50
2023-03-13T13:04:19.526Z,46.41
2023-03-13T13:09:24.089Z,46.72
2023-03-13T13:14:59.119Z,46.32
2023-03-13T13:20:22.450Z,45.83
2023-03-13T13:25:35.236Z,45.15
2023-03-13T13:30:39.511Z,45.22
2023-03-13T13:35:42.541Z,46.41
2023-03-13T13:40:59.272Z,47.02
2023-03-13T13:46:06.033Z,46.85
2023-03-13T13:51:26.292Z,47.15
2023-03-13T13:56:31.318Z,47.63
2023-03-13T14:01:35.535Z,47.83
2023-03-13T14:06:38.964Z,47.69
2023-03-13T14:11:41.698Z,47.73
2023-03-13T14:16:47.309Z,47.72
2023-03-13T14:21:50.134Z,47.57
2023-03-13T14:26:52.924Z,47.36
2023-03-13T14:31:57.835Z,47.29
2023-03-13T14:37:17.386Z,47.14
2023-03-13T14:42:20.677Z,47.13
2023-03-13T14:47:25.987Z,46.69
2023-03-13T14:52:29.086Z,46.75
2023-03-13T14:57:32.369Z,46.68
2023-03-13T15:02:37.491Z,46.76
2023-03-13T15:07:41.274Z,46.88
2023-03-13T15:12:44.245Z,46.60
2023-03-13T15:17:48.422Z,46.74
2023-03-13T15:22:51.456Z,46.56
2023-03-13T15:27:54.283Z,45.56
2023-03-13T15:32:58.497Z,46.55
2023-03-13T15:38:02.004Z,46.83
2023-03-13T15:43:04.850Z,46.91
2023-03-13T15:48:15.779Z,46.73
2023-03-13T15:53:19.425Z,47.17
2023-03-13T15:58:22.366Z,47.15
2023-03-13T16:03:28.306Z,47.26
2023-03-13T16:08:36.562Z,47.29
2023-03-13T16:13:39.959Z,47.31
2023-03-13T16:18:44.539Z,45.68
2023-03-13T16:23:47.401Z,46.26
2023-03-13T16:28:50.271Z,47.25
2023-03-13T16:33:54.875Z,47.20
2023-03-13T16:38:58.165Z,47.17
2023-03-13T16:44:01.131Z,47.21
2023-03-13T16:49:05.464Z,47.32
2023-03-13T16:54:08.241Z,47.34
2023-03-13T16:59:13.406Z,47.10
2023-03-13T17:04:17.594Z,46.92
2023-03-13T17:09:20.382Z,47.15
2023-03-13T17:14:23.158Z,47.20
2023-03-13T17:19:27.276Z,47.44
2023-03-13T17:24:30.028Z,47.83
2023-03-13T17:29:32.847Z,48.10
2023-03-13T17:34:37.027Z,47.98
2023-03-13T17:39:39.882Z,47.76
2023-03-13T17:44:42.807Z,47.63
2023-03-13T17:49:47.093Z,47.54
2023-03-13T17:54:49.911Z,47.64
2023-03-13T17:59:52.692Z,47.34
2023-03-13T18:04:56.950Z,47.16
2023-03-13T18:09:59.883Z,46.78
2023-03-13T18:15:02.641Z,46.56
2023-03-13T18:20:10.719Z,46.74
2023-03-13T18:25:13.743Z,46.60
2023-03-13T18:30:17.886Z,46.44
2023-03-13T18:35:22.216Z,46.08
2023-03-13T18:40:25.982Z,46.22
2023-03-13T18:45:29.038Z,46.19
2023-03-13T18:50:33.350Z,45.79
2023-03-13T18:55:36.092Z,45.81
2023-03-13T19:00:39.068Z,45.57
2023-03-13T19:05:43.303Z,45.79
2023-03-13T19:10:46.456Z,45.84
2023-03-13T19:15:49.436Z,45.57
2023-03-13T19:20:53.565Z,45.32
2023-03-13T19:25:56.946Z,45.62
2023-03-13T19:30:59.743Z,45.59
2023-03-13T19:36:04.132Z,45.29
2023-03-13T19:41:07.214Z,45.29
2023-03-13T19:46:24.424Z,44.97
2023-03-13T19:51:29.408Z,45.12
2023-03-13T19:56:32.611Z,45.13
2023-03-13T20:01:35.516Z,44.87
2023-03-13T20:06:39.770Z,45.21
2023-03-13T20:11:42.659Z,45.17
2023-03-13T20:16:48.891Z,44.84
2023-03-13T20:21:53.215Z,44.69
2023-03-13T20:26:56.545Z,44.50
2023-03-13T20:32:01.249Z,44.81
2023-03-13T20:37:05.598Z,44.53
2023-03-13T20:42:08.961Z,44.55
2023-03-13T20:47:11.922Z,44.33
2023-03-13T20:52:16.288Z,44.45
2023-03-13T20:57:19.756Z,44.49
2023-03-13T21:02:22.848Z,44.52
2023-03-13T21:07:27.387Z,44.48
2023-03-13T21:12:30.469Z,44.61
2023-03-13T21:17:33.228Z,44.84
2023-03-13T21:22:37.343Z,44.91
2023-03-13T21:27:40.188Z,44.88
2023-03-13T21:32:43.196Z,44.82
2023-03-13T21:37:47.550Z,44.99
2023-03-13T21:42:50.473Z,44.81
2023-03-13T21:47:54.918Z,44.86
2023-03-13T21:52:59.133Z,44.93
2023-03-13T21:58:01.925Z,45.14
2023-03-13T22:03:04.827Z,44.86
2023-03-13T22:08:09.089Z,45.12
2023-03-13T22:13:12.048Z,45.02
2023-03-13T22:18:15.023Z,45.19
2023-03-13T22:23:19.215Z,44.61
2023-03-13T22:28:22.146Z,44.95
2023-03-13T22:33:24.931Z,45.35
2023-03-13T22:38:29.044Z,45.15
2023-03-13T22:43:31.956Z,45.51
2023-03-13T22:48:34.785Z,44.78
2023-03-13T22:53:40.003Z,45.34
2023-03-13T22:58:43.183Z,45.45
2023-03-13T23:03:46.293Z,45.46
2023-03-13T23:08:50.473Z,45.57
2023-03-13T23:13:53.423Z,45.35
2023-03-13T23:18:56.546Z,45.77
2023-03-13T23:24:00.668Z,45.46
2023-03-13T23:29:03.452Z,45.64
2023-03-13T23:34:06.271Z,45.88
2023-03-13T23:39:10.466Z,45.89
2023-03-13T23:44:13.271Z,46.01
2023-03-13T23:49:16.357Z,46.00
2023-03-13T23:54:21.640Z,46.19
2023-03-13T23:59:24.673Z,46.40
